createdAt,value
2023-03-23T15:58:42.413Z,100940.06
2023-03-23T16:01:18.303Z,100926.88
2023-03-23T16:03:55.826Z,100934.53
2023-03-23T16:06:27.566Z,100942.59
2023-03-23T16:08:56.473Z,100926.63
2023-03-23T16:11:27.417Z,100926.53
2023-03-23T16:13:55.394Z,100932.28
2023-03-23T16:16:38.283Z,100934.28
2023-03-23T16:19:06.493Z,100935.44
2023-03-23T16:21:34.428Z,100936.19
2023-03-23T16:24:01.978Z,100937.31
2023-03-23T16:26:29.887Z,100952.84
2023-03-23T16:29:06.145Z,100956.16
2023-03-23T16:31:40.389Z,100949.06
2023-03-23T16:34:08.538Z,100944.22
2023-03-23T16:36:36.204Z,100954.41
2023-03-23T16:39:03.799Z,100952.44
2023-03-23T16:41:31.148Z,100960.91
2023-03-23T16:43:59.047Z,100958.22
2023-03-23T16:46:26.404Z,100963.09
2023-03-23T16:48:54.517Z,100965.00
2023-03-23T16:51:21.926Z,100967.03
2023-03-23T16:53:49.309Z,100967.09
2023-03-23T16:56:16.876Z,100971.53
2023-03-23T16:58:44.661Z,100973.00
2023-03-23T17:01:12.231Z,100974.34
2023-03-23T17:03:41.903Z,100976.22
2023-03-23T17:06:11.023Z,100979.81
2023-03-23T17:08:38.884Z,100974.50
2023-03-23T17:11:06.530Z,100989.25
2023-03-23T17:13:34.614Z,100989.44
2023-03-23T17:16:02.221Z,100991.69
2023-03-23T17:18:29.781Z,100990.13
2023-03-23T17:20:58.194Z,100980.28
2023-03-23T17:23:25.545Z,100992.59
2023-03-23T17:25:53.993Z,100996.88
2023-03-23T17:28:21.847Z,101004.44
2023-03-23T17:30:52.006Z,101003.94
2023-03-23T17:33:20.544Z,101009.09
2023-03-23T17:35:51.743Z,101010.75
2023-03-23T17:38:19.476Z,101016.06
2023-03-23T17:40:46.778Z,101024.84
2023-03-23T17:43:14.200Z,101023.03
2023-03-23T17:45:44.266Z,101023.00
2023-03-23T17:48:13.890Z,101038.34
2023-03-23T17:50:41.699Z,101044.09
2023-03-23T17:53:09.845Z,101036.56
2023-03-23T17:55:37.591Z,101036.69
2023-03-23T17:58:04.928Z,101042.72
2023-03-23T18:00:33.596Z,101047.03
2023-03-23T18:03:01.231Z,101054.22
2023-03-23T18:05:28.654Z,101063.41
2023-03-23T18:07:55.997Z,101062.59
2023-03-23T18:10:23.824Z,101063.41
2023-03-23T18:12:51.592Z,101066.38
2023-03-23T18:15:19.626Z,101074.25
2023-03-23T18:17:48.304Z,101074.59
2023-03-23T18:20:16.897Z,101066.94
2023-03-23T18:22:44.778Z,101074.56
2023-03-23T18:25:12.617Z,101082.88
2023-03-23T18:27:40.764Z,101082.56
2023-03-23T18:30:09.856Z,101085.75
2023-03-23T18:32:39.751Z,101086.63
2023-03-23T18:35:10.961Z,101094.41
2023-03-23T18:37:39.729Z,101093.72
2023-03-23T18:40:10.883Z,101104.94
2023-03-23T18:42:41.139Z,101100.97
2023-03-23T18:45:09.757Z,101104.19
2023-03-23T18:47:38.672Z,101104.69
2023-03-23T18:50:11.063Z,101110.47
2023-03-23T18:52:38.734Z,101122.06
2023-03-23T18:55:07.522Z,101120.00
2023-03-23T18:57:35.112Z,101121.47
2023-03-23T19:00:04.692Z,101125.53
2023-03-23T19:02:32.935Z,101118.72
2023-03-23T19:05:00.900Z,101128.94
2023-03-23T19:07:29.719Z,101123.03
2023-03-23T19:09:58.312Z,101129.88
2023-03-23T19:12:26.115Z,101127.59
2023-03-23T19:14:53.627Z,101129.47
2023-03-23T19:17:21.109Z,101132.44
2023-03-23T19:19:48.850Z,101129.75
2023-03-23T19:22:16.809Z,101125.78
2023-03-23T19:24:44.182Z,101134.78
2023-03-23T19:27:11.853Z,101139.66
2023-03-23T19:29:39.799Z,101139.75
2023-03-23T19:32:07.616Z,101144.50
2023-03-23T19:34:34.980Z,101147.66
2023-03-23T19:37:05.720Z,101151.69
2023-03-23T19:39:35.392Z,101151.72
2023-03-23T19:42:04.592Z,101145.00
2023-03-23T19:44:33.364Z,101158.31
2023-03-23T19:47:01.148Z,101150.91
2023-03-23T19:49:28.802Z,101150.25
2023-03-23T19:52:07.265Z,101150.75
2023-03-23T19:54:39.423Z,101149.28
2023-03-23T19:57:07.959Z,101152.69
2023-03-23T19:59:36.702Z,101158.25
2023-03-23T20:02:06.121Z,101152.13
2023-03-23T20:04:35.424Z,101162.06
2023-03-23T20:07:05.926Z,101167.06
2023-03-23T20:09:35.523Z,101171.13
2023-03-23T20:12:04.981Z,101182.91
2023-03-23T20:14:33.943Z,101186.03
2023-03-23T20:17:01.800Z,101181.19
2023-03-23T20:19:29.136Z,101184.81
2023-03-23T20:21:56.581Z,101189.22
2023-03-23T20:24:24.044Z,101186.72
2023-03-23T20:26:51.698Z,101190.06
2023-03-23T20:29:19.633Z,101191.72
2023-03-23T20:31:47.553Z,101185.81
2023-03-23T20:34:28.910Z,101196.56
2023-03-23T20:36:58.250Z,101203.75
2023-03-23T20:39:29.329Z,101208.59
2023-03-23T20:42:00.512Z,101211.94
2023-03-23T20:44:31.167Z,101215.31
2023-03-23T20:46:59.419Z,101217.44
2023-03-23T20:49:27.674Z,101218.66
2023-03-23T20:51:55.059Z,101219.91
2023-03-23T20:54:24.686Z,101217.44
2023-03-23T20:56:55.658Z,101215.13
2023-03-23T20:59:24.504Z,101210.72
2023-03-23T21:01:52.099Z,101217.88
2023-03-23T21:04:23.438Z,101224.81
2023-03-23T21:06:52.038Z,101214.28
2023-03-23T21:09:20.393Z,101217.63
2023-03-23T21:11:48.921Z,101221.44
2023-03-23T21:14:17.068Z,101223.13
2023-03-23T21:16:44.455Z,101230.72
2023-03-23T21:19:13.058Z,101243.31
2023-03-23T21:21:55.522Z,101240.38
2023-03-23T21:24:30.531Z,101239.13
2023-03-23T21:27:00.725Z,101236.59
2023-03-23T21:29:28.564Z,101234.69
2023-03-23T21:34:27.587Z,101237.66
2023-03-23T21:36:54.948Z,101255.09
2023-03-23T21:39:23.731Z,101244.59
2023-03-23T21:41:51.214Z,101248.81
2023-03-23T21:44:19.541Z,101240.81
2023-03-23T21:46:47.262Z,101243.75
2023-03-23T21:49:14.749Z,101240.19
2023-03-23T21:51:43.254Z,101241.22
2023-03-23T21:54:11.720Z,101243.31
2023-03-23T21:56:40.106Z,101241.22
2023-03-23T21:59:08.021Z,101236.78
2023-03-23T22:01:37.045Z,101236.59
2023-03-23T22:04:24.782Z,101245.00
2023-03-23T22:07:13.704Z,101243.09
2023-03-23T22:09:44.934Z,101242.44
2023-03-23T22:12:12.920Z,101242.03
2023-03-23T22:14:40.582Z,101229.66
2023-03-23T22:17:08.762Z,101227.75
2023-03-23T22:19:37.211Z,101235.31
2023-03-23T22:22:05.907Z,101241.19
2023-03-23T22:24:33.275Z,101240.81
2023-03-23T22:27:01.123Z,101241.22
2023-03-23T22:29:29.035Z,101237.63
2023-03-23T22:31:56.404Z,101230.50
2023-03-23T22:34:23.830Z,101234.06
2023-03-23T22:36:51.731Z,101235.75
2023-03-23T22:39:19.113Z,101238.22
2023-03-23T22:41:46.470Z,101235.69
2023-03-23T22:44:18.843Z,101236.78
2023-03-23T22:46:47.330Z,101238.84
2023-03-23T22:49:15.292Z,101232.34
2023-03-23T22:51:43.159Z,101231.88
2023-03-23T22:54:11.684Z,101230.38
2023-03-23T22:56:39.338Z,101224.94
2023-03-23T22:59:07.207Z,101219.72
2023-03-23T23:01:35.492Z,101228.28
2023-03-23T23:04:04.472Z,101226.31
2023-03-23T23:06:32.193Z,101224.63
2023-03-23T23:08:59.758Z,101231.53
2023-03-23T23:11:27.801Z,101231.97
2023-03-23T23:13:55.357Z,101232.34
2023-03-23T23:16:24.406Z,101232.16
2023-03-23T23:18:52.788Z,101234.31
2023-03-23T23:21:22.242Z,101233.47
2023-03-23T23:23:51.740Z,101229.50
2023-03-23T23:26:20.573Z,101232.09
2023-03-23T23:28:49.592Z,101230.63
2023-03-23T23:31:26.623Z,101231.06
2023-03-23T23:33:56.599Z,101223.94
2023-03-23T23:36:30.034Z,101231.44
2023-03-23T23:38:59.945Z,101232.50
2023-03-23T23:41:28.243Z,101236.50
2023-03-23T23:43:55.696Z,101240.69
2023-03-23T23:46:23.309Z,101233.53
2023-03-23T23:48:51.236Z,101229.72
2023-03-23T23:51:19.436Z,101241.16
2023-03-23T23:53:53.202Z,101237.16
2023-03-23T23:56:22.311Z,101224.34
2023-03-23T23:58:50.201Z,101226.84
